createdAt,value
2019-01-08T00:00:29.880Z,2.40
2019-01-08T00:03:01.216Z,2.30
2019-01-08T00:05:33.380Z,2.30
2019-01-08T00:08:04.734Z,2.30
2019-01-08T00:10:36.726Z,2.30
2019-01-08T00:13:07.907Z,2.30
2019-01-08T00:15:38.970Z,2.30
2019-01-08T00:18:10.424Z,2.30
2019-01-08T00:20:42.372Z,2.40
2019-01-08T00:23:16.046Z,2.30
2019-01-08T00:25:47.114Z,2.30
2019-01-08T00:28:18.333Z,2.20
2019-01-08T00:30:49.406Z,2.20
2019-01-08T00:33:20.715Z,2.30
2019-01-08T00:35:51.824Z,2.40
2019-01-08T00:38:23.203Z,2.40
2019-01-08T00:40:54.386Z,2.30
2019-01-08T00:43:26.010Z,2.40
2019-01-08T00:45:57.067Z,2.30
2019-01-08T00:48:28.296Z,2.30
2019-01-08T00:51:01.184Z,2.30
2019-01-08T00:53:32.440Z,2.30
2019-01-08T00:56:03.742Z,2.20
2019-01-08T00:58:34.903Z,2.20
2019-01-08T01:01:06.106Z,2.20
2019-01-08T01:03:37.614Z,2.10
2019-01-08T01:06:08.672Z,2.10
2019-01-08T01:08:39.918Z,2.00
2019-01-08T01:11:11.156Z,2.10
2019-01-08T01:13:42.496Z,2.10
2019-01-08T01:16:13.538Z,2.00
2019-01-08T01:18:45.095Z,2.10
2019-01-08T01:21:16.158Z,2.10
2019-01-08T01:23:47.681Z,2.00
2019-01-08T01:26:19.014Z,2.00
2019-01-08T01:28:50.368Z,2.00
2019-01-08T01:31:21.416Z,2.00
2019-01-08T01:33:53.589Z,2.00
2019-01-08T01:36:24.795Z,1.90
2019-01-08T01:38:56.064Z,1.80
2019-01-08T01:41:28.196Z,1.80
2019-01-08T01:43:59.587Z,1.80
2019-01-08T01:46:30.643Z,1.70
2019-01-08T01:49:02.082Z,1.80
2019-01-08T01:51:33.220Z,1.70
2019-01-08T01:54:04.518Z,1.70
2019-01-08T01:56:35.585Z,1.60
2019-01-08T01:59:08.553Z,1.60
2019-01-08T02:01:39.984Z,1.60
2019-01-08T02:04:11.232Z,1.70
2019-01-08T02:06:42.300Z,1.70
2019-01-08T02:09:13.524Z,1.70
2019-01-08T02:11:44.634Z,1.70
2019-01-08T02:14:15.864Z,1.70
2019-01-08T02:16:47.104Z,1.70
2019-01-08T02:19:18.970Z,1.70
2019-01-08T02:21:50.058Z,1.70
2019-01-08T02:24:21.288Z,1.70
2019-01-08T02:26:52.400Z,1.70
2019-01-08T02:29:23.757Z,1.70
2019-01-08T02:31:54.982Z,1.70
2019-01-08T02:34:26.258Z,1.80
2019-01-08T02:36:57.388Z,1.70
2019-01-08T02:39:28.886Z,1.70
2019-01-08T02:42:00.052Z,1.80
2019-01-08T02:44:31.397Z,1.80
2019-01-08T02:47:02.641Z,1.70
2019-01-08T02:49:33.884Z,1.80
2019-01-08T02:52:04.991Z,1.80
2019-01-08T02:54:37.221Z,1.80
2019-01-08T02:57:14.584Z,1.80
2019-01-08T02:59:45.948Z,1.80
2019-01-08T03:02:17.079Z,1.80
2019-01-08T03:04:49.583Z,1.80
2019-01-08T03:07:22.277Z,1.80
2019-01-08T03:09:53.618Z,1.70
2019-01-08T03:12:24.722Z,1.60
2019-01-08T03:14:56.120Z,1.60
2019-01-08T03:17:27.240Z,1.60
2019-01-08T03:20:00.496Z,1.60
2019-01-08T03:22:31.612Z,1.50
2019-01-08T03:25:02.932Z,1.50
2019-01-08T03:27:34.169Z,1.50
2019-01-08T03:30:05.907Z,1.40
2019-01-08T03:32:38.365Z,1.40
2019-01-08T03:35:09.601Z,1.40
2019-01-08T03:37:40.677Z,1.50
2019-01-08T03:40:12.966Z,1.40
2019-01-08T03:42:44.084Z,1.40
2019-01-08T03:45:15.418Z,1.30
2019-01-08T03:47:46.505Z,1.30
2019-01-08T03:50:17.792Z,1.20
2019-01-08T03:52:50.488Z,1.20
2019-01-08T03:55:21.720Z,1.10
2019-01-08T03:57:52.823Z,1.10
2019-01-08T04:00:24.127Z,1.10
2019-01-08T04:02:55.226Z,1.00
2019-01-08T04:05:26.652Z,1.00
2019-01-08T04:07:57.759Z,1.10
2019-01-08T04:10:29.155Z,1.10
2019-01-08T04:13:00.256Z,1.10
2019-01-08T04:15:31.746Z,1.10
2019-01-08T04:18:02.850Z,1.10
2019-01-08T04:20:33.995Z,1.10
2019-01-08T04:23:05.093Z,1.10
2019-01-08T04:25:36.423Z,1.10
2019-01-08T04:28:07.514Z,1.00
2019-01-08T04:30:38.704Z,1.00
2019-01-08T04:33:09.867Z,1.00
2019-01-08T04:35:41.287Z,1.00
2019-01-08T04:38:12.412Z,1.00
2019-01-08T04:40:43.597Z,1.00
2019-01-08T04:43:14.722Z,1.00
2019-01-08T04:45:45.954Z,1.00
2019-01-08T04:48:17.068Z,1.00
2019-01-08T04:50:48.470Z,1.00
2019-01-08T04:53:19.558Z,1.10
2019-01-08T04:55:50.809Z,1.20
2019-01-08T04:58:21.926Z,1.20
2019-01-08T05:00:53.582Z,1.20
2019-01-08T05:03:24.668Z,1.20
2019-01-08T05:05:55.928Z,1.20
2019-01-08T05:08:27.101Z,1.30
2019-01-08T05:10:58.520Z,1.30
2019-01-08T05:13:29.598Z,1.20
2019-01-08T05:16:01.026Z,1.20
2019-01-08T05:18:32.116Z,1.20
2019-01-08T05:21:03.502Z,1.20
2019-01-08T05:23:34.646Z,1.20
2019-01-08T05:26:05.892Z,1.10
2019-01-08T05:28:36.966Z,1.10
2019-01-08T05:31:08.200Z,1.10
2019-01-08T05:33:39.294Z,1.20
2019-01-08T05:36:10.599Z,1.10
2019-01-08T05:38:42.988Z,1.20
2019-01-08T05:41:14.212Z,1.10
2019-01-08T05:43:45.389Z,1.20
2019-01-08T05:46:16.611Z,1.20
2019-01-08T05:48:47.781Z,1.20
2019-01-08T05:51:19.092Z,1.20
2019-01-08T05:53:51.267Z,1.20
2019-01-08T05:56:22.600Z,1.20
2019-01-08T05:58:53.707Z,1.20
2019-01-08T06:01:24.992Z,1.20
2019-01-08T06:03:56.478Z,1.30
2019-01-08T06:06:27.749Z,1.20
2019-01-08T06:08:58.819Z,1.20
2019-01-08T06:11:30.267Z,1.20
2019-01-08T06:14:01.324Z,1.10
2019-01-08T06:16:32.620Z,1.10
2019-01-08T06:19:03.690Z,1.00
2019-01-08T06:21:34.966Z,1.10
2019-01-08T06:24:06.184Z,1.10
2019-01-08T06:26:37.480Z,1.10
2019-01-08T06:29:08.556Z,1.10
2019-01-08T06:31:41.072Z,1.10
2019-01-08T06:34:12.166Z,1.00
2019-01-08T06:36:43.472Z,1.00
2019-01-08T06:39:14.525Z,1.10
2019-01-08T06:41:45.814Z,1.10
2019-01-08T06:44:16.914Z,1.10
2019-01-08T06:46:48.192Z,1.20
2019-01-08T06:49:19.286Z,1.30
2019-01-08T06:51:50.606Z,1.30
2019-01-08T06:54:21.700Z,1.30
2019-01-08T06:56:54.760Z,1.50
2019-01-08T06:59:25.864Z,1.50
2019-01-08T07:01:58.332Z,1.50
2019-01-08T07:04:29.418Z,1.50
2019-01-08T07:07:00.844Z,1.50
2019-01-08T07:09:31.912Z,1.50
2019-01-08T07:12:04.645Z,1.50
2019-01-08T07:14:35.710Z,1.50
2019-01-08T07:17:07.030Z,1.40
2019-01-08T07:19:38.096Z,1.40
2019-01-08T07:22:09.754Z,1.40
2019-01-08T07:24:40.844Z,1.30
2019-01-08T07:27:16.326Z,1.20
2019-01-08T07:29:44.898Z,1.20
2019-01-08T07:32:17.390Z,1.20
2019-01-08T07:34:48.492Z,1.20
2019-01-08T07:37:19.752Z,1.10
2019-01-08T07:39:50.804Z,1.20
2019-01-08T07:42:22.374Z,1.10
2019-01-08T07:44:54.652Z,1.10
2019-01-08T07:47:26.049Z,1.10
2019-01-08T07:49:59.440Z,1.10
2019-01-08T07:52:30.743Z,1.10
2019-01-08T07:55:01.816Z,1.10
2019-01-08T07:57:33.230Z,1.10
2019-01-08T08:00:04.606Z,1.10
2019-01-08T08:02:37.148Z,1.00
2019-01-08T08:05:08.580Z,1.10
2019-01-08T08:07:39.950Z,1.00
2019-01-08T08:10:11.052Z,1.10
2019-01-08T08:12:42.358Z,1.10
2019-01-08T08:15:13.480Z,1.10
2019-01-08T08:17:44.725Z,1.10
2019-01-08T08:20:15.832Z,1.20
2019-01-08T08:22:47.232Z,1.20
2019-01-08T08:25:18.474Z,1.20
2019-01-08T08:27:49.719Z,1.10
2019-01-08T08:30:20.798Z,1.10
2019-01-08T08:32:52.814Z,1.20
2019-01-08T08:35:23.887Z,1.20
2019-01-08T08:37:57.180Z,1.20
2019-01-08T08:40:28.248Z,1.30
2019-01-08T08:43:12.301Z,1.30
2019-01-08T08:45:43.360Z,1.40
2019-01-08T08:48:16.200Z,1.50
2019-01-08T08:50:47.344Z,1.60
2019-01-08T08:53:20.000Z,1.60
2019-01-08T08:55:51.098Z,1.60
2019-01-08T08:58:22.472Z,1.70
2019-01-08T09:00:53.559Z,1.70
2019-01-08T09:03:24.862Z,1.80
2019-01-08T09:05:55.945Z,1.80
2019-01-08T09:08:27.353Z,1.90
2019-01-08T09:10:58.460Z,1.90
2019-01-08T09:13:29.744Z,1.90
2019-01-08T09:16:00.880Z,2.00
2019-01-08T09:18:33.757Z,2.00
2019-01-08T09:21:05.220Z,2.00
2019-01-08T09:23:36.570Z,1.90
2019-01-08T09:26:18.928Z,2.00
2019-01-08T09:28:50.526Z,1.90
2019-01-08T09:31:21.621Z,2.00
2019-01-08T09:33:53.330Z,2.00
2019-01-08T09:36:24.386Z,2.00
2019-01-08T09:38:55.722Z,2.00
2019-01-08T09:41:27.105Z,2.00
2019-01-08T09:43:59.950Z,2.10
2019-01-08T09:46:31.085Z,2.10
2019-01-08T09:49:02.440Z,2.10
2019-01-08T09:51:33.511Z,2.10
2019-01-08T09:54:04.748Z,2.10
2019-01-08T09:56:35.868Z,2.20
2019-01-08T09:59:07.320Z,2.20
2019-01-08T10:01:38.442Z,2.10
2019-01-08T10:04:09.666Z,2.20
2019-01-08T10:06:40.746Z,2.20
2019-01-08T10:09:13.226Z,2.20
2019-01-08T10:11:44.320Z,2.30
2019-01-08T10:14:15.615Z,2.30
2019-01-08T10:16:46.775Z,2.30
2019-01-08T10:19:18.116Z,2.30
2019-01-08T10:21:49.290Z,2.40
2019-01-08T10:24:20.622Z,2.40
2019-01-08T10:26:53.578Z,2.40
2019-01-08T10:29:24.958Z,2.40
2019-01-08T10:31:57.244Z,2.40
2019-01-08T10:34:28.516Z,2.40
2019-01-08T10:36:59.606Z,2.50
2019-01-08T10:39:31.180Z,2.50
2019-01-08T10:42:02.299Z,2.50
2019-01-08T10:44:33.645Z,2.50
2019-01-08T10:47:04.714Z,2.50
2019-01-08T10:49:36.072Z,2.50
2019-01-08T10:52:07.157Z,2.50
2019-01-08T10:54:38.435Z,2.50
2019-01-08T10:57:09.616Z,2.50
2019-01-08T10:59:42.024Z,2.50
2019-01-08T11:02:13.359Z,2.50
2019-01-08T11:04:44.720Z,2.50
2019-01-08T11:07:15.842Z,2.60
2019-01-08T11:09:47.096Z,2.50
2019-01-08T11:12:18.180Z,2.50
2019-01-08T11:14:49.437Z,2.50
2019-01-08T11:17:20.552Z,2.50
2019-01-08T11:19:51.818Z,2.50
2019-01-08T11:22:22.879Z,2.50
2019-01-08T11:24:55.509Z,2.60
2019-01-08T11:27:26.632Z,2.60
2019-01-08T11:29:57.804Z,2.50
2019-01-08T11:32:28.920Z,2.60
2019-01-08T11:35:00.291Z,2.60
2019-01-08T11:37:31.424Z,2.60
2019-01-08T11:40:02.785Z,2.60
2019-01-08T11:42:33.944Z,2.60
2019-01-08T11:45:06.430Z,2.70
2019-01-08T11:47:37.654Z,2.70
2019-01-08T11:50:08.995Z,2.70
2019-01-08T11:52:40.186Z,2.70
2019-01-08T11:55:12.787Z,2.80
2019-01-08T11:57:43.860Z,2.80
2019-01-08T12:00:27.191Z,2.80
2019-01-08T12:02:59.092Z,2.80
2019-01-08T12:05:30.549Z,2.80
2019-01-08T12:08:01.793Z,2.90
2019-01-08T12:10:33.177Z,2.90
2019-01-08T12:13:05.528Z,2.90
2019-01-08T12:15:36.751Z,3.00
2019-01-08T12:18:07.946Z,3.00
2019-01-08T12:20:39.153Z,3.00
2019-01-08T12:23:10.233Z,3.10
2019-01-08T12:25:41.432Z,3.10
2019-01-08T12:28:12.555Z,3.00
2019-01-08T12:30:44.884Z,3.00
2019-01-08T12:33:17.376Z,3.00
2019-01-08T12:35:48.597Z,3.00
2019-01-08T12:38:19.681Z,3.00
2019-01-08T12:40:50.897Z,3.00
2019-01-08T12:43:21.970Z,3.00
2019-01-08T12:45:53.146Z,2.90
2019-01-08T12:48:24.286Z,3.00
2019-01-08T12:50:55.653Z,2.90
2019-01-08T12:53:28.760Z,2.80
2019-01-08T12:56:00.115Z,2.70
2019-01-08T12:58:31.190Z,2.70
2019-01-08T13:01:02.597Z,2.80
2019-01-08T13:03:33.745Z,2.80
2019-01-08T13:06:06.954Z,2.80
2019-01-08T13:08:38.092Z,2.90
2019-01-08T13:11:09.424Z,2.90
2019-01-08T13:13:40.581Z,2.90
2019-01-08T13:16:11.829Z,2.90
2019-01-08T13:18:43.002Z,3.00
2019-01-08T13:21:14.420Z,3.00
2019-01-08T13:23:45.532Z,2.90
2019-01-08T13:26:16.790Z,3.00
2019-01-08T13:28:47.987Z,3.00
2019-01-08T13:31:19.227Z,3.10
2019-01-08T13:33:50.401Z,3.10
2019-01-08T13:36:21.782Z,3.10
2019-01-08T13:38:52.856Z,3.10
2019-01-08T13:41:24.161Z,3.10
2019-01-08T13:43:55.332Z,3.10
2019-01-08T13:46:26.577Z,3.20
2019-01-08T13:48:57.828Z,3.20
2019-01-08T13:51:29.142Z,3.20
2019-01-08T13:54:00.316Z,3.20
2019-01-08T13:56:31.634Z,3.20
2019-01-08T13:59:02.804Z,3.20
2019-01-08T14:01:34.139Z,3.20
2019-01-08T14:04:05.328Z,3.30
2019-01-08T14:06:38.056Z,3.30
2019-01-08T14:09:09.581Z,3.40
2019-01-08T14:11:41.062Z,3.50
2019-01-08T14:14:12.459Z,3.40
2019-01-08T14:16:43.962Z,3.50
2019-01-08T14:19:15.144Z,3.60
2019-01-08T14:21:46.572Z,3.70
2019-01-08T14:24:17.804Z,3.80
2019-01-08T14:26:49.187Z,3.80
2019-01-08T14:29:20.281Z,3.80
2019-01-08T14:31:51.626Z,3.80
2019-01-08T14:34:22.813Z,3.80
2019-01-08T14:36:54.109Z,3.80
2019-01-08T14:39:26.450Z,3.80
2019-01-08T14:41:57.748Z,3.90
2019-01-08T14:44:28.936Z,4.00
2019-01-08T14:47:00.338Z,4.00
2019-01-08T14:49:32.854Z,4.00
2019-01-08T14:52:04.162Z,3.90
2019-01-08T14:54:35.378Z,3.90
2019-01-08T14:57:06.626Z,3.90
2019-01-08T14:59:37.813Z,3.90
2019-01-08T15:02:09.247Z,3.90
2019-01-08T15:04:40.394Z,3.90
2019-01-08T15:07:12.164Z,3.90
2019-01-08T15:09:45.546Z,4.00
2019-01-08T15:12:16.908Z,4.10
2019-01-08T15:14:48.508Z,4.10
2019-01-08T15:17:19.767Z,4.00
2019-01-08T15:19:50.888Z,4.00
2019-01-08T15:22:22.281Z,3.90
2019-01-08T15:24:54.667Z,3.90
2019-01-08T15:27:26.024Z,3.80
2019-01-08T15:29:57.380Z,3.70
2019-01-08T15:32:28.720Z,3.70
2019-01-08T15:34:59.978Z,3.70
2019-01-08T15:37:33.818Z,3.70
2019-01-08T15:40:05.220Z,3.70
2019-01-08T15:42:36.355Z,3.70
2019-01-08T15:45:07.495Z,3.70
2019-01-08T15:47:38.774Z,3.60
2019-01-08T15:50:10.188Z,3.50
2019-01-08T15:52:41.640Z,3.60
2019-01-08T15:55:12.784Z,3.50
2019-01-08T15:57:44.024Z,3.60
2019-01-08T16:00:15.673Z,3.50
2019-01-08T16:02:47.225Z,3.60
2019-01-08T16:05:18.291Z,3.60
2019-01-08T16:07:49.730Z,3.50
2019-01-08T16:10:20.828Z,3.50
2019-01-08T16:12:52.091Z,3.60
2019-01-08T16:15:23.256Z,3.60
2019-01-08T16:17:54.504Z,3.60
2019-01-08T16:20:25.652Z,3.60
2019-01-08T16:22:57.107Z,3.60
2019-01-08T16:25:29.364Z,3.50
2019-01-08T16:28:01.514Z,3.50
2019-01-08T16:30:32.704Z,3.60
2019-01-08T16:33:04.025Z,3.50
2019-01-08T16:35:35.136Z,3.60
2019-01-08T16:38:06.626Z,3.60
2019-01-08T16:40:40.022Z,3.60
2019-01-08T16:43:11.303Z,3.60
2019-01-08T16:45:44.030Z,3.50
2019-01-08T16:48:15.406Z,3.60
2019-01-08T16:50:46.475Z,3.50
2019-01-08T16:53:18.136Z,3.40
2019-01-08T16:55:49.233Z,3.40
2019-01-08T16:58:20.462Z,3.40
2019-01-08T17:00:52.518Z,3.40
2019-01-08T17:03:26.803Z,3.40
2019-01-08T17:05:57.882Z,3.50
2019-01-08T17:08:29.190Z,3.60
2019-01-08T17:11:11.780Z,3.50
2019-01-08T17:13:43.094Z,3.50
2019-01-08T17:16:16.137Z,3.40
2019-01-08T17:18:47.228Z,3.40
2019-01-08T17:21:18.358Z,3.40
2019-01-08T17:23:49.913Z,3.40
2019-01-08T17:26:22.585Z,3.40
2019-01-08T17:28:54.170Z,3.40
2019-01-08T17:31:25.648Z,3.40
2019-01-08T17:33:56.904Z,3.40
2019-01-08T17:36:28.028Z,3.40
2019-01-08T17:38:59.461Z,3.50
2019-01-08T17:41:30.666Z,3.50
2019-01-08T17:44:02.979Z,3.50
2019-01-08T17:46:34.365Z,3.50
2019-01-08T17:49:05.710Z,3.50
2019-01-08T17:51:36.832Z,3.60
2019-01-08T17:54:08.150Z,3.50
2019-01-08T17:56:39.337Z,3.50
2019-01-08T17:59:19.144Z,3.50
2019-01-08T18:02:00.694Z,3.50
2019-01-08T18:04:31.940Z,3.50
2019-01-08T18:07:03.038Z,3.40
2019-01-08T18:09:34.288Z,3.40
2019-01-08T18:12:05.408Z,3.40
2019-01-08T18:14:37.262Z,3.40
2019-01-08T18:17:08.365Z,3.40
2019-01-08T18:19:39.550Z,3.40
2019-01-08T18:22:22.024Z,3.30
2019-01-08T18:24:53.364Z,3.30
2019-01-08T18:27:24.552Z,3.40
2019-01-08T18:29:55.784Z,3.30
2019-01-08T18:32:26.926Z,3.30
2019-01-08T18:34:58.420Z,3.30
2019-01-08T18:37:31.546Z,3.40
2019-01-08T18:40:02.771Z,3.40
2019-01-08T18:42:34.038Z,3.30
2019-01-08T18:45:05.502Z,3.40
2019-01-08T18:47:36.667Z,3.40
2019-01-08T18:50:08.120Z,3.50
2019-01-08T18:52:39.190Z,3.40
2019-01-08T18:55:11.696Z,3.40
2019-01-08T18:57:44.805Z,3.30
2019-01-08T19:00:16.068Z,3.30
2019-01-08T19:02:47.228Z,3.30
2019-01-08T19:05:18.452Z,3.30
2019-01-08T19:07:52.635Z,3.30
2019-01-08T19:10:23.934Z,3.30
2019-01-08T19:12:55.260Z,3.30
2019-01-08T19:15:26.728Z,3.20
2019-01-08T19:17:57.894Z,3.20
2019-01-08T19:20:29.128Z,3.20
2019-01-08T19:23:00.300Z,3.20
2019-01-08T19:25:31.549Z,3.20
2019-01-08T19:28:02.770Z,3.20
2019-01-08T19:30:33.990Z,3.20
2019-01-08T19:33:05.081Z,3.20
2019-01-08T19:35:36.328Z,3.10
2019-01-08T19:38:07.456Z,3.10
2019-01-08T19:40:38.638Z,3.10
2019-01-08T19:43:09.900Z,3.00
2019-01-08T19:45:41.158Z,3.00
2019-01-08T19:48:12.261Z,3.00
2019-01-08T19:50:45.772Z,3.00
2019-01-08T19:53:16.872Z,3.00
2019-01-08T19:55:48.045Z,2.90
2019-01-08T19:58:19.159Z,2.90
2019-01-08T20:00:50.487Z,2.90
2019-01-08T20:03:21.966Z,2.90
2019-01-08T20:05:53.516Z,2.90
2019-01-08T20:08:24.800Z,2.90
2019-01-08T20:10:56.202Z,2.90
2019-01-08T20:13:27.312Z,2.90
2019-01-08T20:16:00.745Z,2.80
2019-01-08T20:18:31.866Z,2.80
2019-01-08T20:21:03.060Z,2.80
2019-01-08T20:23:34.190Z,2.80
2019-01-08T20:26:05.576Z,2.80
2019-01-08T20:28:36.694Z,2.80
2019-01-08T20:31:07.928Z,2.80
2019-01-08T20:33:39.085Z,2.70
2019-01-08T20:36:11.174Z,2.70
2019-01-08T20:38:42.429Z,2.70
2019-01-08T20:41:14.808Z,2.70
2019-01-08T20:43:45.859Z,2.70
2019-01-08T20:46:17.214Z,2.80
2019-01-08T20:48:48.272Z,2.80
2019-01-08T20:51:20.457Z,2.80
2019-01-08T20:53:51.584Z,2.80
2019-01-08T20:56:22.919Z,2.70
2019-01-08T20:58:53.967Z,2.80
2019-01-08T21:01:25.283Z,2.80
2019-01-08T21:03:56.430Z,2.80
2019-01-08T21:06:27.772Z,2.80
2019-01-08T21:08:58.947Z,2.80
2019-01-08T21:11:30.364Z,2.80
2019-01-08T21:14:01.534Z,2.80
2019-01-08T21:16:34.569Z,2.80
2019-01-08T21:19:05.656Z,2.80
2019-01-08T21:21:36.889Z,2.80
2019-01-08T21:24:08.245Z,2.80
2019-01-08T21:26:39.674Z,2.80
2019-01-08T21:29:10.758Z,2.80
2019-01-08T21:31:42.281Z,2.80
2019-01-08T21:34:13.399Z,2.80
2019-01-08T21:36:44.784Z,2.80
2019-01-08T21:39:15.955Z,2.80
2019-01-08T21:41:47.177Z,2.80
2019-01-08T21:44:18.309Z,2.80
2019-01-08T21:46:49.629Z,2.80
2019-01-08T21:49:20.792Z,2.80
2019-01-08T21:51:52.022Z,2.80
2019-01-08T21:54:23.198Z,2.70
2019-01-08T21:56:54.386Z,2.70
2019-01-08T21:59:25.485Z,2.80
2019-01-08T22:01:56.726Z,2.80
2019-01-08T22:04:27.833Z,2.80
2019-01-08T22:06:59.296Z,2.80
2019-01-08T22:09:30.409Z,2.80
2019-01-08T22:12:02.324Z,2.80
2019-01-08T22:14:33.675Z,2.80
2019-01-08T22:17:05.228Z,2.80
2019-01-08T22:19:36.671Z,2.70
2019-01-08T22:22:07.978Z,2.80
2019-01-08T22:24:39.080Z,2.70
2019-01-08T22:27:10.427Z,2.80
2019-01-08T22:29:41.514Z,2.80
2019-01-08T22:32:12.869Z,2.80
2019-01-08T22:34:44.013Z,2.80
2019-01-08T22:37:15.289Z,2.80
2019-01-08T22:39:46.345Z,2.80
2019-01-08T22:42:21.136Z,2.80
2019-01-08T22:44:53.552Z,2.80
2019-01-08T22:47:25.166Z,2.80
2019-01-08T22:49:56.221Z,2.80
2019-01-08T22:52:28.055Z,2.80
2019-01-08T22:54:59.102Z,2.80
2019-01-08T22:57:30.452Z,2.80
2019-01-08T23:00:01.513Z,2.90
2019-01-08T23:02:34.357Z,2.90
2019-01-08T23:05:10.697Z,2.90
2019-01-08T23:07:38.843Z,2.90
2019-01-08T23:10:11.914Z,2.80
2019-01-08T23:12:43.213Z,2.80
2019-01-08T23:15:14.696Z,2.80
2019-01-08T23:17:47.116Z,2.80
2019-01-08T23:20:18.569Z,2.80
2019-01-08T23:22:49.804Z,2.80
2019-01-08T23:25:20.884Z,2.80
2019-01-08T23:27:52.468Z,2.80
2019-01-08T23:30:23.689Z,2.80
2019-01-08T23:32:55.008Z,2.80
2019-01-08T23:35:27.042Z,2.80
2019-01-08T23:37:58.361Z,2.80
2019-01-08T23:40:29.442Z,2.80
2019-01-08T23:43:02.785Z,2.80
2019-01-08T23:45:33.874Z,2.80
2019-01-08T23:48:05.600Z,2.80
2019-01-08T23:50:36.728Z,2.80
2019-01-08T23:53:09.500Z,2.80
2019-01-08T23:55:50.853Z,2.80
2019-01-08T23:58:22.140Z,2.80
